Time;durP1;ratioP1;P1;durP2;ratioP2;P2;SDS_P1;SDS_P2;PMS_P1;PMS_P2;Temp;Humidity;BMP_temperature;BMP_pressure;BME280_temperature;BME280_humidity;BME280_pressure;Samples;Min_cycle;Max_cycle;Signal;HPM_P1;HPM_P2
2021/04/14 00:01:25;;;;;;;1999.90;999.90;;;;;;;5.46;60.38;102285.97;15541194;28;20521;-62
2021/04/14 00:08:57;;;;;;;1999.90;999.90;;;;;;;5.39;60.67;102288.94;15557753;28;20046;-61
2021/04/14 00:16:29;;;;;;;1999.90;999.90;;;;;;;5.38;60.76;102287.25;15539980;28;20045;-63
2021/04/14 00:24:02;;;;;;;1999.90;999.90;;;;;;;5.26;60.96;102296.81;15557438;28;20494;-61
2021/04/14 00:31:37;;;;;;;1999.90;999.90;;;;;;;5.12;61.80;102293.63;15540236;28;20046;-62
2021/04/14 00:39:13;;;;;;;1999.90;999.90;;;;;;;5.12;62.07;102280.63;15557656;28;20042;-62
2021/04/14 00:46:45;;;;;;;1999.90;999.90;;;;;;;4.95;62.88;102290.06;15556185;28;20121;-62
2021/04/14 00:54:17;;;;;;;1999.90;999.90;;;;;;;5.03;63.06;102284.09;15601140;22;20376;-58
2021/04/14 01:01:48;;;;;;;1999.90;999.90;;;;;;;4.78;63.02;102279.88;15669432;28;20061;-59
2021/04/14 01:09:21;;;;;;;1999.90;999.90;;;;;;;4.87;62.93;102278.34;15654275;28;20044;-59
2021/04/14 01:16:52;;;;;;;1999.90;999.90;;;;;;;4.78;63.34;102281.81;15669315;28;20504;-60
2021/04/14 01:24:24;;;;;;;1999.90;999.90;;;;;;;4.74;64.07;102286.19;15669283;28;20051;-56
2021/04/14 01:31:56;;;;;;;1999.90;999.90;;;;;;;4.61;64.47;102285.47;15669488;28;20060;-59
2021/04/14 01:39:28;;;;;;;1999.90;999.90;;;;;;;4.65;63.66;102274.75;15670599;28;20041;-59
2021/04/14 01:47:00;;;;;;;1999.90;999.90;;;;;;;4.65;64.15;102274.75;15652403;28;20457;-60
2021/04/14 01:54:33;;;;;;;1999.90;999.90;;;;;;;4.58;64.24;102265.78;15652633;28;20409;-59
2021/04/14 02:02:05;;;;;;;1999.90;999.90;;;;;;;4.62;63.89;102265.03;15669061;28;20045;-60
2021/04/14 02:09:38;;;;;;;1999.90;999.90;;;;;;;4.50;64.51;102255.19;15651968;28;20416;-60
2021/04/14 02:17:09;;;;;;;1999.90;999.90;;;;;;;4.49;64.79;102262.66;15682311;28;20064;-60
2021/04/14 02:24:42;;;;;;;1999.90;999.90;;;;;;;4.41;64.65;102260.31;15680831;28;20049;-60
2021/04/14 02:32:14;;;;;;;1999.90;999.90;;;;;;;4.31;65.06;102257.41;15681264;28;20072;-60
2021/04/14 02:39:47;;;;;;;1999.90;999.90;;;;;;;4.30;65.81;102259.31;15663271;28;20072;-60
2021/04/14 02:47:19;;;;;;;1999.90;999.90;;;;;;;4.26;65.55;102252.63;15679717;28;20520;-59
2021/04/14 02:54:51;;;;;;;1999.90;999.90;;;;;;;4.26;65.81;102257.31;15676943;28;20041;-61
2021/04/14 03:02:23;;;;;;;1999.90;999.90;;;;;;;4.09;65.98;102273.09;15660481;28;20425;-61
2021/04/14 03:09:55;;;;;;;1999.90;999.90;;;;;;;4.03;66.02;102256.41;15675936;28;20090;-60
2021/04/14 03:17:28;;;;;;;1999.90;999.90;;;;;;;3.76;66.95;102266.47;15680338;28;20077;-61
2021/04/14 03:25:00;;;;;;;1999.90;999.90;;;;;;;3.82;67.18;102259.94;15678819;28;20037;-61
2021/04/14 03:32:32;;;;;;;1999.90;999.90;;;;;;;3.79;67.70;102254.91;15677340;28;20040;-61
2021/04/14 03:40:05;;;;;;;1999.90;999.90;;;;;;;3.80;68.04;102253.81;15676669;28;20044;-61
2021/04/14 03:47:37;;;;;;;1999.90;999.90;;;;;;;3.74;68.26;102263.09;15676118;28;20079;-61
2021/04/14 03:55:12;;;;;;;1999.90;999.90;;;;;;;3.79;68.50;102259.59;15675016;28;20128;-61
2021/04/14 04:02:44;;;;;;;1999.90;999.90;;;;;;;3.64;68.55;102254.63;15656702;28;20401;-60
2021/04/14 04:10:16;;;;;;;1999.90;999.90;;;;;;;3.60;69.47;102262.59;15674041;28;20047;-60
2021/04/14 04:17:48;;;;;;;1999.90;999.90;;;;;;;3.60;69.16;102257.06;15671311;28;20045;-60
2021/04/14 04:25:20;;;;;;;1999.90;999.90;;;;;;;3.63;69.72;102258.50;15638371;28;20102;-58
2021/04/14 04:32:51;;;;;;;1999.90;999.90;;;;;;;3.60;69.97;102268.09;15673185;28;20120;-61
2021/04/14 04:40:28;;;;;;;1999.90;999.90;;;;;;;3.64;70.05;102273.97;15671107;28;20435;-61
2021/04/14 04:48:01;;;;;;;1999.90;999.90;;;;;;;3.74;70.19;102280.50;15670187;28;20098;-61
2021/04/14 04:55:35;;;;;;;1999.90;999.90;;;;;;;3.98;69.97;102294.19;15653515;28;20465;-61
2021/04/14 05:03:08;;;;;;;1999.90;999.90;;;;;;;4.34;69.09;102290.03;15670312;28;20053;-60
2021/04/14 05:10:40;;;;;;;1999.90;999.90;;;;;;;4.43;68.96;102296.00;15669883;28;20120;-61
2021/04/14 05:18:12;;;;;;;1999.90;999.90;;;;;;;4.81;67.28;102312.59;15669111;28;20057;-61
2021/04/14 05:25:45;;;;;;;1999.90;999.90;;;;;;;5.17;66.77;102319.41;15669584;28;20040;-61
2021/04/14 05:33:18;;;;;;;1999.90;999.90;;;;;;;5.08;66.58;102320.94;15671338;28;20041;-59
2021/04/14 05:40:50;;;;;;;1999.90;999.90;;;;;;;5.22;65.57;102325.03;15669435;28;20086;-61
2021/04/14 05:48:22;;;;;;;1999.90;999.90;;;;;;;5.67;65.22;102320.25;15677421;28;20083;-61
2021/04/14 05:55:55;;;;;;;1999.90;999.90;;;;;;;6.00;64.26;102333.91;15680973;28;20076;-60
2021/04/14 06:03:26;;;;;;;1999.90;999.90;;;;;;;6.36;62.79;102334.22;15682485;28;20047;-60
2021/04/14 06:11:00;;;;;;;1999.90;999.90;;;;;;;6.64;61.94;102336.63;15681008;28;20045;-60
2021/04/14 06:18:31;;;;;;;1999.90;999.90;;;;;;;7.16;60.64;102334.97;15679337;28;20123;-59
2021/04/14 06:26:16;;;;;;;1999.90;999.90;;;;;;;6.73;63.30;102341.69;15679027;28;20299;-60
2021/04/14 06:33:49;;;;;;;1999.90;999.90;;;;;;;7.60;59.82;102349.28;15678132;28;20041;-61
2021/04/14 06:41:48;;;;;;;1999.90;999.90;;;;;;;8.05;59.33;102354.13;15678228;28;20511;-59
2021/04/14 06:49:26;;;;;;;1999.90;999.90;;;;;;;8.25;58.55;102350.53;15678650;28;20512;-60
2021/04/14 06:57:01;;;;;;;1999.90;999.90;;;;;;;9.16;57.83;102357.06;15690009;22;20444;-58
2021/04/14 07:04:37;;;;;;;1999.90;999.90;;;;;;;10.05;53.76;102352.41;15679110;28;20182;-61
2021/04/14 07:12:14;;;;;;;1999.90;999.90;;;;;;;10.65;52.83;102356.69;15676167;28;20055;-60
2021/04/14 07:20:06;;;;;;;1999.90;999.90;;;;;;;10.43;53.19;102339.59;15677266;28;20227;-60
2021/04/14 07:27:52;;;;;;;1999.90;999.90;;;;;;;10.62;52.75;102351.69;15675304;28;20063;-60
2021/04/14 07:35:28;;;;;;;1999.90;999.90;;;;;;;12.51;48.69;102346.38;15673682;28;20044;-60
2021/04/14 07:43:11;;;;;;;1999.90;999.90;;;;;;;13.24;47.58;102354.81;15673597;28;20523;-61
2021/04/14 07:50:44;;;;;;;1999.90;999.90;;;;;;;11.55;49.15;102353.13;15674373;28;20056;-61
2021/04/14 07:58:23;;;;;;;1999.90;999.90;;;;;;;11.67;49.57;102357.44;15656731;28;20472;-57
2021/04/14 08:06:07;;;;;;;1999.90;999.90;;;;;;;11.17;49.38;102359.78;15673043;28;20068;-60
2021/04/14 08:13:42;;;;;;;1999.90;999.90;;;;;;;10.98;50.46;102360.53;15672918;28;20381;-60
2021/04/14 08:21:16;;;;;;;1999.90;999.90;;;;;;;12.13;49.39;102347.28;15673943;28;20128;-59
2021/04/14 08:28:51;;;;;;;1999.90;999.90;;;;;;;13.76;44.07;102343.34;15673643;28;20381;-58
2021/04/14 08:36:29;;;;;;;1999.90;999.90;;;;;;;15.76;40.76;102348.97;15672630;28;20037;-58
2021/04/14 08:44:09;;;;;;;1999.90;999.90;;;;;;;15.38;39.63;102343.88;15672320;28;20056;-60
2021/04/14 08:51:45;;;;;;;1999.90;999.90;;;;;;;15.50;38.79;102332.81;15672282;28;20142;-60
2021/04/14 08:59:17;;;;;;;1999.90;999.90;;;;;;;15.47;39.91;102333.47;15673193;28;20484;-59
2021/04/14 09:06:51;;;;;;;1999.90;999.90;;;;;;;16.65;37.35;102328.50;15670240;28;20049;-58
2021/04/14 09:14:34;;;;;;;1999.90;999.90;;;;;;;16.99;35.37;102321.97;15671069;28;20041;-58
2021/04/14 09:22:19;;;;;;;1999.90;999.90;;;;;;;16.94;35.59;102321.31;15669924;28;20296;-60
2021/04/14 09:30:00;;;;;;;1999.90;999.90;;;;;;;16.23;35.84;102323.78;15672642;28;20041;-60
2021/04/14 09:37:33;;;;;;;1999.90;999.90;;;;;;;15.04;36.42;102305.22;15670674;28;20060;-59
2021/04/14 09:45:37;;;;;;;1999.90;999.90;;;;;;;18.08;31.53;102303.34;15671438;28;20427;-59
2021/04/14 09:53:20;;;;;;;1999.90;999.90;;;;;;;16.12;34.49;102307.22;15614830;28;20484;-58
2021/04/14 10:00:55;;;;;;;;;;;;;;;13.72;38.51;102308.63;15671593;28;20041;-57
2021/04/14 10:08:27;;;;;;;1999.90;999.90;;;;;;;17.00;33.17;102305.88;15668496;28;19921;-55
2021/04/14 10:16:00;;;;;;;1999.90;999.90;;;;;;;18.39;30.18;102294.41;15667030;28;20068;-58
2021/04/14 10:23:32;;;;;;;1999.90;999.90;;;;;;;13.98;34.73;102297.66;15668003;28;20038;-56
2021/04/14 10:31:08;;;;;;;1999.90;999.90;;;;;;;16.82;31.45;102293.03;15669134;28;20090;-56
2021/04/14 10:38:41;;;;;;;1999.90;999.90;;;;;;;17.24;29.42;102286.34;15678918;28;20048;-58
2021/04/14 10:46:16;;;;;;;1999.90;999.90;;;;;;;16.73;29.63;102276.13;15660839;28;20052;-59
2021/04/14 10:53:50;;;;;;;1999.90;999.90;;;;;;;16.86;29.34;102277.06;15677746;28;20048;-56
2021/04/14 11:01:34;;;;;;;1999.90;999.90;;;;;;;18.30;27.79;102271.88;15661866;28;20040;-57
2021/04/14 11:09:07;;;;;;;1999.90;999.90;;;;;;;16.71;28.80;102270.84;15674577;28;20084;-56
2021/04/14 11:16:41;;;;;;;;;;;;;;;14.27;32.06;102264.31;15665789;28;20513;-60
2021/04/14 11:24:15;;;;;;;1999.90;999.90;;;;;;;14.12;35.16;102251.50;15674660;28;20303;-61
2021/04/14 11:31:49;;;;;;;1999.90;999.90;;;;;;;18.84;29.01;102248.34;15674276;28;20116;-59
2021/04/14 11:39:21;;;;;;;1999.90;999.90;;;;;;;18.12;27.33;102247.81;15674586;28;20501;-59
2021/04/14 11:46:58;;;;;;;1999.90;999.90;;;;;;;14.82;31.61;102251.91;15675418;28;20111;-62
2021/04/14 11:54:35;;;;;;;1999.90;999.90;;;;;;;15.79;30.10;102249.78;15690279;28;20083;-54
2021/04/14 12:02:21;;;;;;;1999.90;999.90;;;;;;;14.46;33.65;102246.44;15668121;28;20048;-59
2021/04/14 12:09:52;;;;;;;1999.90;999.90;;;;;;;14.23;32.45;102251.25;15669370;28;20095;-60
2021/04/14 12:17:25;;;;;;;1999.90;999.90;;;;;;;12.84;34.63;102243.53;15668655;28;20202;-61
2021/04/14 12:24:59;;;;;;;1999.90;999.90;;;;;;;13.43;35.43;102238.88;15662312;28;20045;-60
2021/04/14 12:32:31;;;;;;;1999.90;999.90;;;;;;;13.28;35.17;102240.06;15670786;28;20429;-62
2021/04/14 12:40:04;;;;;;;1999.90;999.90;;;;;;;19.52;28.64;102245.69;15669998;28;20041;-60
2021/04/14 12:47:37;;;;;;;1999.90;999.90;;;;;;;16.35;30.13;102237.44;15668083;28;20068;-58
2021/04/14 12:55:13;;;;;;;1999.90;999.90;;;;;;;15.70;30.52;102237.69;15684604;22;20148;-60
2021/04/14 13:02:50;;;;;;;1999.90;999.90;;;;;;;13.80;33.49;102232.94;15674247;28;20048;-63
2021/04/14 13:10:24;;;;;;;1999.90;999.90;;;;;;;13.37;35.88;102234.56;15672072;28;20045;-61
2021/04/14 13:18:00;;;;;;;1999.90;999.90;;;;;;;13.40;34.71;102223.53;15681593;28;20049;-62
2021/04/14 13:25:41;;;;;;;1999.90;999.90;;;;;;;13.16;35.03;102220.16;15675568;28;20072;-61
2021/04/14 13:33:21;;;;;;;1999.90;999.90;;;;;;;13.76;33.67;102217.09;15675777;28;20041;-60
2021/04/14 13:40:56;;;;;;;1999.90;999.90;;;;;;;14.47;32.35;102220.84;15660170;28;20045;-62
2021/04/14 13:48:34;;;;;;;1999.90;999.90;;;;;;;15.62;29.94;102207.56;15675521;28;20065;-59
2021/04/14 13:56:10;;;;;;;1999.90;999.90;;;;;;;14.35;32.23;102193.31;15672655;28;20068;-61
2021/04/14 14:03:43;;;;;;;1999.90;999.90;;;;;;;13.73;33.64;102184.88;15675896;28;20052;-61
2021/04/14 14:11:22;;;;;;;1999.90;999.90;;;;;;;13.00;34.73;102191.59;15682785;28;20128;-62
2021/04/14 14:19:01;;;;;;;1999.90;999.90;;;;;;;12.30;37.25;102183.56;15687004;28;20480;-59
2021/04/14 14:26:35;;;;;;;1999.90;999.90;;;;;;;11.51;40.74;102194.69;15687912;28;20450;-62
2021/04/14 14:34:09;;;;;;;1999.90;999.90;;;;;;;11.68;40.57;102197.78;15687412;28;20094;-60
2021/04/14 14:41:46;;;;;;;1999.90;999.90;;;;;;;11.19;40.32;102198.25;15685199;28;20124;-62
2021/04/14 14:49:25;;;;;;;1999.90;999.90;;;;;;;11.57;39.13;102185.09;15684389;28;20041;-62
2021/04/14 14:57:01;;;;;;;1999.90;999.90;;;;;;;11.80;37.77;102178.56;15703376;28;20202;-62
2021/04/14 15:04:33;;;;;;;1999.90;999.90;;;;;;;11.52;34.91;102176.78;15691788;28;20049;-64
2021/04/14 15:12:05;;;;;;;1999.90;999.90;;;;;;;11.67;34.59;102173.75;15624804;28;20450;-63
2021/04/14 15:19:39;;;;;;;1999.90;999.90;;;;;;;11.87;35.47;102171.75;15680799;28;20060;-63
2021/04/14 15:27:12;;;;;;;1999.90;999.90;;;;;;;11.96;36.54;102179.13;15680363;28;20056;-63
2021/04/14 15:34:48;;;;;;;1999.90;999.90;;;;;;;12.43;36.40;102174.34;15682347;28;20300;-63
2021/04/14 15:42:20;;;;;;;1999.90;999.90;;;;;;;12.63;36.71;102171.13;15680784;28;20045;-63
2021/04/14 15:49:53;;;;;;;1999.90;999.90;;;;;;;12.92;35.32;102170.78;15678617;28;20052;-60
2021/04/14 15:57:27;;;;;;;1999.90;999.90;;;;;;;12.34;36.74;102170.59;15712872;28;20051;-61
2021/04/14 16:05:01;;;;;;;1999.90;999.90;;;;;;;11.92;37.62;102168.88;15740377;28;20071;-61
2021/04/14 16:12:32;;;;;;;1999.90;999.90;;;;;;;11.74;36.74;102170.53;15738726;28;20154;-62
2021/04/14 16:20:08;;;;;;;1999.90;999.90;;;;;;;11.37;37.57;102165.84;15738513;28;20496;-62
2021/04/14 16:27:39;;;;;;;1999.90;999.90;;;;;;;11.52;38.54;102158.03;15738939;28;20056;-62
2021/04/14 16:35:13;;;;;;;1999.90;999.90;;;;;;;11.11;37.83;102154.22;15740007;28;20043;-60
2021/04/14 16:42:45;;;;;;;1999.90;999.90;;;;;;;11.39;37.99;102160.78;15741960;28;20040;-61
2021/04/14 16:50:17;;;;;;;1999.90;999.90;;;;;;;10.96;37.78;102158.91;15740783;28;20040;-62
2021/04/14 16:57:49;;;;;;;1999.90;999.90;;;;;;;10.93;38.43;102153.06;15700930;28;20059;-63
2021/04/14 17:05:23;;;;;;;1999.90;999.90;;;;;;;10.78;38.47;102153.28;15677378;28;20048;-61
2021/04/14 17:12:59;;;;;;;1999.90;999.90;;;;;;;10.79;39.10;102155.78;15674781;28;20455;-60
2021/04/14 17:20:31;;;;;;;1999.90;999.90;;;;;;;11.19;38.34;102151.56;15674185;28;20037;-62
2021/04/14 17:28:03;;;;;;;1999.90;999.90;;;;;;;10.66;39.87;102162.94;15657361;28;20089;-58
2021/04/14 17:35:37;;;;;;;1999.90;999.90;;;;;;;10.78;39.11;102168.06;15656981;28;20037;-62
2021/04/14 17:43:09;;;;;;;1999.90;999.90;;;;;;;10.58;40.36;102171.13;15675549;28;20098;-64
2021/04/14 17:50:42;;;;;;;1999.90;999.90;;;;;;;10.30;40.91;102182.03;15687461;28;20048;-61
2021/04/14 17:58:15;;;;;;;1999.90;999.90;;;;;;;10.02;41.33;102182.88;15671115;28;20053;-59
2021/04/14 18:05:48;;;;;;;1999.90;999.90;;;;;;;10.11;41.15;102186.69;15671145;28;20524;-62
2021/04/14 18:13:20;;;;;;;1999.90;999.90;;;;;;;9.88;41.56;102191.06;15688329;28;20045;-62
2021/04/14 18:20:53;;;;;;;1999.90;999.90;;;;;;;9.86;42.49;102196.13;15687332;28;20045;-62
2021/04/14 18:28:25;;;;;;;1999.90;999.90;;;;;;;9.87;42.20;102205.31;15671004;28;20110;-61
2021/04/14 18:35:58;;;;;;;1999.90;999.90;;;;;;;9.33;43.24;102209.91;15684930;28;20315;-60
2021/04/14 18:43:29;;;;;;;1999.90;999.90;;;;;;;9.45;43.81;102212.34;15685072;28;20124;-61
2021/04/14 18:51:02;;;;;;;1999.90;999.90;;;;;;;9.26;44.65;102210.22;15678825;28;20087;-61
2021/04/14 18:58:34;;;;;;;1999.90;999.90;;;;;;;9.49;44.22;102213.44;15675368;28;20064;-60
2021/04/14 19:06:07;;;;;;;1999.90;999.90;;;;;;;9.58;44.11;102222.81;15676929;28;20121;-61
2021/04/14 19:13:39;;;;;;;1999.90;999.90;;;;;;;9.52;44.87;102224.81;15690083;28;20386;-62
2021/04/14 19:21:12;;;;;;;1999.90;999.90;;;;;;;9.36;46.00;102234.41;15677550;28;20127;-63
2021/04/14 19:28:43;;;;;;;1999.90;999.90;;;;;;;9.33;46.23;102236.94;15682552;28;20049;-61
2021/04/14 19:36:15;;;;;;;1999.90;999.90;;;;;;;9.12;46.54;102239.84;15681525;28;20091;-56
2021/04/14 19:43:48;;;;;;;1999.90;999.90;;;;;;;9.13;45.87;102243.44;15684207;28;20095;-60
2021/04/14 19:51:20;;;;;;;1999.90;999.90;;;;;;;9.16;46.04;102240.09;15684007;28;20052;-60
2021/04/14 19:58:52;;;;;;;1999.90;999.90;;;;;;;8.92;47.33;102256.63;15681989;28;20521;-60
2021/04/14 20:06:24;;;;;;;1999.90;999.90;;;;;;;8.84;47.98;102246.91;15682255;28;20041;-60
2021/04/14 20:13:55;;;;;;;1999.90;999.90;;;;;;;8.60;48.34;102265.38;15681308;28;20048;-59
2021/04/14 20:21:28;;;;;;;1999.90;999.90;;;;;;;8.49;49.29;102263.72;15682587;28;20052;-59
2021/04/14 20:28:59;;;;;;;1999.90;999.90;;;;;;;8.42;49.57;102263.19;15682421;28;20496;-57
2021/04/14 20:36:33;;;;;;;1999.90;999.90;;;;;;;8.33;50.32;102274.00;15680997;28;20074;-62
2021/04/14 20:44:06;;;;;;;1999.90;999.90;;;;;;;8.18;50.80;102263.75;15679058;28;20125;-61
2021/04/14 20:51:38;;;;;;;1999.90;999.90;;;;;;;7.95;50.71;102265.16;15680079;28;20318;-62
2021/04/14 20:59:09;;;;;;;1999.90;999.90;;;;;;;7.79;50.92;102274.56;15677186;28;20056;-60
2021/04/14 21:06:42;;;;;;;1999.90;999.90;;;;;;;7.44;52.38;102276.19;15677928;28;20486;-60
2021/04/14 21:14:16;;;;;;;1999.90;999.90;;;;;;;7.40;52.14;102288.13;15677701;28;20041;-62
2021/04/14 21:21:49;;;;;;;1999.90;999.90;;;;;;;7.02;52.33;102269.97;15677726;28;20494;-62
2021/04/14 21:29:21;;;;;;;1999.90;999.90;;;;;;;7.47;51.08;102272.88;15679373;28;20057;-61
2021/04/14 21:36:54;;;;;;;1999.90;999.90;;;;;;;7.50;51.96;102264.00;15677163;28;20049;-63
2021/04/14 21:44:25;;;;;;;1999.90;999.90;;;;;;;7.28;52.48;102274.47;15676777;28;20041;-63
2021/04/14 21:51:58;;;;;;;1999.90;999.90;;;;;;;7.17;52.60;102268.06;15675261;28;20037;-61
2021/04/14 21:59:29;;;;;;;1999.90;999.90;;;;;;;7.01;52.99;102271.91;15676359;28;20049;-61
2021/04/14 22:07:03;;;;;;;1999.90;999.90;;;;;;;6.93;52.48;102287.13;15676054;28;20041;-62
2021/04/14 22:14:34;;;;;;;;;;;;;;;6.88;53.93;102291.84;15675466;28;20460;-62
2021/04/14 22:22:07;;;;;;;1999.90;999.90;;;;;;;6.56;54.15;102294.69;15674381;28;19921;-61
2021/04/14 22:29:38;;;;;;;1999.90;999.90;;;;;;;6.50;53.37;102296.59;15680406;28;20049;-58
2021/04/14 22:37:12;;;;;;;1999.90;999.90;;;;;;;6.62;53.68;102290.84;15686703;28;20505;-59
2021/04/14 22:44:43;;;;;;;1999.90;999.90;;;;;;;6.46;54.21;102295.47;15685651;28;20037;-59
2021/04/14 22:52:16;;;;;;;1999.90;999.90;;;;;;;6.20;55.23;102296.38;15686167;28;20087;-61
2021/04/14 22:59:48;;;;;;;1999.90;999.90;;;;;;;6.02;55.32;102295.66;15685531;28;20068;-59
2021/04/14 23:07:21;;;;;;;1999.90;999.90;;;;;;;5.92;55.64;102297.53;15683706;28;20037;-60
2021/04/14 23:14:53;;;;;;;1999.90;999.90;;;;;;;5.62;56.37;102293.31;15684578;28;20493;-59
2021/04/14 23:22:26;;;;;;;1999.90;999.90;;;;;;;5.62;56.26;102290.56;15684588;28;20432;-60
2021/04/14 23:29:57;;;;;;;1999.90;999.90;;;;;;;5.41;57.51;102288.66;15666330;28;20090;-59
2021/04/14 23:37:30;;;;;;;1999.90;999.90;;;;;;;5.44;56.83;102280.69;15682592;28;20052;-59
2021/04/14 23:45:01;;;;;;;1999.90;999.90;;;;;;;5.26;55.89;102292.13;15679103;28;20497;-60
2021/04/14 23:52:34;;;;;;;1999.90;999.90;;;;;;;5.31;56.23;102285.78;15683401;28;20060;-59
